sensor_id;sensor_type;location;lat;lon;timestamp;P1;durP1;ratioP1;P2;durP2;ratioP2
5117;SDS011;2578;51.622;7.046;2022-11-09T00:01:24;14.43;;;6.40;;
5117;SDS011;2578;51.622;7.046;2022-11-09T00:03:55;7.07;;;6.57;;
5117;SDS011;2578;51.622;7.046;2022-11-09T00:06:25;7.30;;;6.80;;
5117;SDS011;2578;51.622;7.046;2022-11-09T00:08:52;6.90;;;6.40;;
5117;SDS011;2578;51.622;7.046;2022-11-09T00:11:18;7.47;;;6.97;;
5117;SDS011;2578;51.622;7.046;2022-11-09T00:13:44;6.70;;;6.27;;
5117;SDS011;2578;51.622;7.046;2022-11-09T00:16:11;8.60;;;8.00;;
5117;SDS011;2578;51.622;7.046;2022-11-09T00:18:38;7.17;;;6.67;;
5117;SDS011;2578;51.622;7.046;2022-11-09T00:21:10;6.83;;;6.33;;
5117;SDS011;2578;51.622;7.046;2022-11-09T00:23:37;7.20;;;6.50;;
5117;SDS011;2578;51.622;7.046;2022-11-09T00:26:03;7.00;;;6.50;;
5117;SDS011;2578;51.622;7.046;2022-11-09T00:28:30;6.60;;;6.20;;
5117;SDS011;2578;51.622;7.046;2022-11-09T00:31:03;7.00;;;6.50;;
5117;SDS011;2578;51.622;7.046;2022-11-09T00:33:39;6.70;;;6.30;;
5117;SDS011;2578;51.622;7.046;2022-11-09T00:36:05;7.13;;;6.63;;
5117;SDS011;2578;51.622;7.046;2022-11-09T00:38:33;7.33;;;6.83;;
5117;SDS011;2578;51.622;7.046;2022-11-09T00:41:00;7.03;;;6.53;;
5117;SDS011;2578;51.622;7.046;2022-11-09T00:43:26;6.60;;;6.10;;
5117;SDS011;2578;51.622;7.046;2022-11-09T00:45:52;6.50;;;6.10;;
5117;SDS011;2578;51.622;7.046;2022-11-09T00:48:17;7.00;;;6.50;;
5117;SDS011;2578;51.622;7.046;2022-11-09T00:50:47;6.10;;;5.70;;
5117;SDS011;2578;51.622;7.046;2022-11-09T00:53:14;6.10;;;5.70;;
5117;SDS011;2578;51.622;7.046;2022-11-09T00:55:39;5.90;;;5.50;;
5117;SDS011;2578;51.622;7.046;2022-11-09T00:58:05;7.03;;;6.37;;
5117;SDS011;2578;51.622;7.046;2022-11-09T01:00:30;5.77;;;5.37;;
5117;SDS011;2578;51.622;7.046;2022-11-09T01:02:56;6.00;;;5.60;;
5117;SDS011;2578;51.622;7.046;2022-11-09T01:05:21;6.00;;;5.60;;
5117;SDS011;2578;51.622;7.046;2022-11-09T01:07:47;7.10;;;6.50;;
5117;SDS011;2578;51.622;7.046;2022-11-09T01:10:13;6.03;;;5.63;;
5117;SDS011;2578;51.622;7.046;2022-11-09T01:12:38;6.20;;;5.70;;
5117;SDS011;2578;51.622;7.046;2022-11-09T01:15:04;5.97;;;5.57;;
5117;SDS011;2578;51.622;7.046;2022-11-09T01:17:30;5.80;;;5.40;;
5117;SDS011;2578;51.622;7.046;2022-11-09T01:19:56;6.13;;;5.63;;
5117;SDS011;2578;51.622;7.046;2022-11-09T01:22:21;5.77;;;5.37;;
5117;SDS011;2578;51.622;7.046;2022-11-09T01:24:47;6.30;;;5.90;;
5117;SDS011;2578;51.622;7.046;2022-11-09T01:27:12;5.70;;;5.30;;
5117;SDS011;2578;51.622;7.046;2022-11-09T01:29:38;5.50;;;5.10;;
5117;SDS011;2578;51.622;7.046;2022-11-09T01:32:04;5.30;;;4.90;;
5117;SDS011;2578;51.622;7.046;2022-11-09T01:34:29;5.73;;;5.23;;
5117;SDS011;2578;51.622;7.046;2022-11-09T01:36:55;5.10;;;4.70;;
5117;SDS011;2578;51.622;7.046;2022-11-09T01:39:21;5.73;;;5.33;;
5117;SDS011;2578;51.622;7.046;2022-11-09T01:41:47;5.70;;;5.30;;
5117;SDS011;2578;51.622;7.046;2022-11-09T01:49:08;5.70;;;5.30;;
5117;SDS011;2578;51.622;7.046;2022-11-09T01:51:42;6.10;;;5.70;;
5117;SDS011;2578;51.622;7.046;2022-11-09T01:54:23;5.90;;;5.50;;
5117;SDS011;2578;51.622;7.046;2022-11-09T01:56:53;5.40;;;5.00;;
5117;SDS011;2578;51.622;7.046;2022-11-09T01:59:24;5.60;;;5.20;;
5117;SDS011;2578;51.622;7.046;2022-11-09T02:01:53;5.73;;;5.33;;
5117;SDS011;2578;51.622;7.046;2022-11-09T02:04:24;5.83;;;5.43;;
5117;SDS011;2578;51.622;7.046;2022-11-09T02:06:52;5.50;;;5.10;;
5117;SDS011;2578;51.622;7.046;2022-11-09T02:09:22;5.97;;;5.57;;
5117;SDS011;2578;51.622;7.046;2022-11-09T02:11:49;5.43;;;5.03;;
5117;SDS011;2578;51.622;7.046;2022-11-09T02:14:15;5.40;;;5.00;;
5117;SDS011;2578;51.622;7.046;2022-11-09T02:16:41;5.50;;;5.10;;
5117;SDS011;2578;51.622;7.046;2022-11-09T02:19:07;5.30;;;4.90;;
5117;SDS011;2578;51.622;7.046;2022-11-09T02:21:33;5.30;;;4.90;;
5117;SDS011;2578;51.622;7.046;2022-11-09T02:23:59;5.43;;;5.03;;
5117;SDS011;2578;51.622;7.046;2022-11-09T02:26:27;7.23;;;6.73;;
5117;SDS011;2578;51.622;7.046;2022-11-09T02:29:06;5.40;;;5.00;;
5117;SDS011;2578;51.622;7.046;2022-11-09T02:31:34;5.40;;;5.00;;
5117;SDS011;2578;51.622;7.046;2022-11-09T02:34:07;5.17;;;4.77;;
5117;SDS011;2578;51.622;7.046;2022-11-09T02:36:35;4.70;;;4.30;;
5117;SDS011;2578;51.622;7.046;2022-11-09T02:39:01;5.47;;;4.97;;
5117;SDS011;2578;51.622;7.046;2022-11-09T02:41:28;5.20;;;4.80;;
5117;SDS011;2578;51.622;7.046;2022-11-09T02:43:55;5.00;;;4.60;;
5117;SDS011;2578;51.622;7.046;2022-11-09T02:46:31;4.80;;;4.40;;
5117;SDS011;2578;51.622;7.046;2022-11-09T02:48:59;4.63;;;4.23;;
5117;SDS011;2578;51.622;7.046;2022-11-09T02:51:25;4.67;;;4.27;;
5117;SDS011;2578;51.622;7.046;2022-11-09T02:53:51;5.50;;;5.00;;
5117;SDS011;2578;51.622;7.046;2022-11-09T02:56:16;4.70;;;4.30;;
5117;SDS011;2578;51.622;7.046;2022-11-09T02:58:42;4.80;;;4.40;;
5117;SDS011;2578;51.622;7.046;2022-11-09T03:01:08;5.10;;;4.60;;
5117;SDS011;2578;51.622;7.046;2022-11-09T03:03:34;5.20;;;4.60;;
5117;SDS011;2578;51.622;7.046;2022-11-09T03:05:59;4.70;;;4.30;;
5117;SDS011;2578;51.622;7.046;2022-11-09T03:08:25;4.80;;;4.40;;
5117;SDS011;2578;51.622;7.046;2022-11-09T03:10:51;5.53;;;5.13;;
5117;SDS011;2578;51.622;7.046;2022-11-09T03:13:16;4.90;;;4.50;;
5117;SDS011;2578;51.622;7.046;2022-11-09T03:15:42;4.80;;;4.40;;
5117;SDS011;2578;51.622;7.046;2022-11-09T03:18:07;5.30;;;4.90;;
5117;SDS011;2578;51.622;7.046;2022-11-09T03:20:33;4.80;;;4.40;;
5117;SDS011;2578;51.622;7.046;2022-11-09T03:22:59;5.33;;;4.93;;
5117;SDS011;2578;51.622;7.046;2022-11-09T03:25:25;5.60;;;5.20;;
5117;SDS011;2578;51.622;7.046;2022-11-09T03:28:00;5.30;;;4.90;;
5117;SDS011;2578;51.622;7.046;2022-11-09T03:30:28;5.40;;;5.00;;
5117;SDS011;2578;51.622;7.046;2022-11-09T03:32:57;5.33;;;4.93;;
5117;SDS011;2578;51.622;7.046;2022-11-09T03:35:23;5.50;;;5.10;;
5117;SDS011;2578;51.622;7.046;2022-11-09T03:37:49;6.37;;;5.87;;
5117;SDS011;2578;51.622;7.046;2022-11-09T03:40:15;7.30;;;5.80;;
5117;SDS011;2578;51.622;7.046;2022-11-09T03:42:44;6.20;;;5.80;;
5117;SDS011;2578;51.622;7.046;2022-11-09T03:45:14;6.60;;;6.20;;
5117;SDS011;2578;51.622;7.046;2022-11-09T03:47:41;7.03;;;6.53;;
5117;SDS011;2578;51.622;7.046;2022-11-09T03:50:07;7.27;;;6.77;;
5117;SDS011;2578;51.622;7.046;2022-11-09T03:52:34;8.17;;;7.37;;
5117;SDS011;2578;51.622;7.046;2022-11-09T03:55:00;7.50;;;7.00;;
5117;SDS011;2578;51.622;7.046;2022-11-09T03:57:26;7.50;;;7.00;;
5117;SDS011;2578;51.622;7.046;2022-11-09T03:59:51;7.60;;;7.10;;
5117;SDS011;2578;51.622;7.046;2022-11-09T04:02:17;7.70;;;7.20;;
5117;SDS011;2578;51.622;7.046;2022-11-09T04:04:43;7.43;;;6.93;;
5117;SDS011;2578;51.622;7.046;2022-11-09T04:07:09;7.00;;;6.50;;
5117;SDS011;2578;51.622;7.046;2022-11-09T04:09:35;7.30;;;6.80;;
5117;SDS011;2578;51.622;7.046;2022-11-09T04:12:01;7.20;;;6.70;;
5117;SDS011;2578;51.622;7.046;2022-11-09T04:14:26;7.20;;;6.70;;
5117;SDS011;2578;51.622;7.046;2022-11-09T04:16:52;7.50;;;7.00;;
5117;SDS011;2578;51.622;7.046;2022-11-09T04:19:18;7.00;;;6.50;;
5117;SDS011;2578;51.622;7.046;2022-11-09T04:21:43;7.30;;;6.80;;
5117;SDS011;2578;51.622;7.046;2022-11-09T04:24:09;7.30;;;6.80;;
5117;SDS011;2578;51.622;7.046;2022-11-09T04:26:34;7.40;;;6.90;;
5117;SDS011;2578;51.622;7.046;2022-11-09T04:29:00;7.43;;;6.93;;
5117;SDS011;2578;51.622;7.046;2022-11-09T04:31:25;7.23;;;6.73;;
5117;SDS011;2578;51.622;7.046;2022-11-09T04:33:51;7.90;;;7.40;;
5117;SDS011;2578;51.622;7.046;2022-11-09T04:36:17;7.30;;;6.80;;
5117;SDS011;2578;51.622;7.046;2022-11-09T04:38:42;7.10;;;6.60;;
5117;SDS011;2578;51.622;7.046;2022-11-09T04:41:08;7.20;;;6.70;;
5117;SDS011;2578;51.622;7.046;2022-11-09T04:43:34;7.80;;;7.10;;
5117;SDS011;2578;51.622;7.046;2022-11-09T04:46:00;7.30;;;6.80;;
5117;SDS011;2578;51.622;7.046;2022-11-09T04:48:26;8.27;;;7.67;;
5117;SDS011;2578;51.622;7.046;2022-11-09T04:50:57;6.80;;;6.40;;
5117;SDS011;2578;51.622;7.046;2022-11-09T04:53:27;7.13;;;6.63;;
5117;SDS011;2578;51.622;7.046;2022-11-09T04:55:53;7.70;;;7.20;;
5117;SDS011;2578;51.622;7.046;2022-11-09T04:58:19;7.80;;;7.30;;
5117;SDS011;2578;51.622;7.046;2022-11-09T05:00:44;7.60;;;7.10;;
5117;SDS011;2578;51.622;7.046;2022-11-09T05:03:10;7.03;;;6.53;;
5117;SDS011;2578;51.622;7.046;2022-11-09T05:05:36;20.03;;;6.80;;
5117;SDS011;2578;51.622;7.046;2022-11-09T05:08:02;6.10;;;5.60;;
5117;SDS011;2578;51.622;7.046;2022-11-09T05:10:29;5.60;;;5.20;;
5117;SDS011;2578;51.622;7.046;2022-11-09T05:12:56;5.53;;;5.10;;
5117;SDS011;2578;51.622;7.046;2022-11-09T05:15:23;11.80;;;4.90;;
5117;SDS011;2578;51.622;7.046;2022-11-09T05:17:48;4.27;;;3.90;;
5117;SDS011;2578;51.622;7.046;2022-11-09T05:20:14;4.60;;;4.20;;
5117;SDS011;2578;51.622;7.046;2022-11-09T05:22:40;4.43;;;3.73;;
5117;SDS011;2578;51.622;7.046;2022-11-09T05:25:25;3.40;;;3.10;;
5117;SDS011;2578;51.622;7.046;2022-11-09T05:27:51;4.43;;;4.03;;
5117;SDS011;2578;51.622;7.046;2022-11-09T05:30:17;3.33;;;3.00;;
5117;SDS011;2578;51.622;7.046;2022-11-09T05:32:43;3.20;;;2.60;;
5117;SDS011;2578;51.622;7.046;2022-11-09T05:35:08;3.10;;;2.50;;
5117;SDS011;2578;51.622;7.046;2022-11-09T05:37:34;4.03;;;3.07;;
5117;SDS011;2578;51.622;7.046;2022-11-09T05:40:01;4.20;;;3.23;;
5117;SDS011;2578;51.622;7.046;2022-11-09T05:42:27;3.00;;;2.10;;
5117;SDS011;2578;51.622;7.046;2022-11-09T05:44:53;6.10;;;3.23;;
5117;SDS011;2578;51.622;7.046;2022-11-09T05:47:19;3.00;;;2.30;;
5117;SDS011;2578;51.622;7.046;2022-11-09T05:49:45;3.10;;;2.30;;
5117;SDS011;2578;51.622;7.046;2022-11-09T05:52:10;3.40;;;2.50;;
5117;SDS011;2578;51.622;7.046;2022-11-09T05:54:36;3.20;;;2.43;;
5117;SDS011;2578;51.622;7.046;2022-11-09T05:57:02;3.10;;;2.20;;
5117;SDS011;2578;51.622;7.046;2022-11-09T05:59:27;3.13;;;2.50;;
5117;SDS011;2578;51.622;7.046;2022-11-09T06:01:53;3.17;;;2.33;;
5117;SDS011;2578;51.622;7.046;2022-11-09T06:04:19;3.30;;;2.57;;
5117;SDS011;2578;51.622;7.046;2022-11-09T06:06:44;5.60;;;2.63;;
5117;SDS011;2578;51.622;7.046;2022-11-09T06:09:10;3.20;;;2.40;;
5117;SDS011;2578;51.622;7.046;2022-11-09T06:11:35;3.20;;;2.40;;
5117;SDS011;2578;51.622;7.046;2022-11-09T06:14:01;3.40;;;2.90;;
5117;SDS011;2578;51.622;7.046;2022-11-09T06:16:26;3.40;;;2.90;;
5117;SDS011;2578;51.622;7.046;2022-11-09T06:18:52;3.30;;;2.60;;
5117;SDS011;2578;51.622;7.046;2022-11-09T06:21:19;3.57;;;3.13;;
5117;SDS011;2578;51.622;7.046;2022-11-09T06:23:44;3.30;;;2.60;;
5117;SDS011;2578;51.622;7.046;2022-11-09T06:26:10;6.23;;;4.70;;
5117;SDS011;2578;51.622;7.046;2022-11-09T06:28:37;3.20;;;2.40;;
5117;SDS011;2578;51.622;7.046;2022-11-09T06:31:05;3.30;;;2.70;;
5117;SDS011;2578;51.622;7.046;2022-11-09T06:33:32;3.30;;;2.73;;
5117;SDS011;2578;51.622;7.046;2022-11-09T06:35:59;5.40;;;3.90;;
5117;SDS011;2578;51.622;7.046;2022-11-09T06:38:26;3.20;;;2.40;;
5117;SDS011;2578;51.622;7.046;2022-11-09T06:40:52;5.80;;;2.97;;
5117;SDS011;2578;51.622;7.046;2022-11-09T06:43:18;3.20;;;2.50;;
5117;SDS011;2578;51.622;7.046;2022-11-09T06:45:45;3.20;;;2.40;;
5117;SDS011;2578;51.622;7.046;2022-11-09T06:48:10;3.20;;;2.37;;
5117;SDS011;2578;51.622;7.046;2022-11-09T06:50:36;3.20;;;2.30;;
5117;SDS011;2578;51.622;7.046;2022-11-09T06:53:03;3.13;;;2.13;;
5117;SDS011;2578;51.622;7.046;2022-11-09T06:55:30;3.27;;;2.30;;
5117;SDS011;2578;51.622;7.046;2022-11-09T06:57:57;3.20;;;2.40;;
5117;SDS011;2578;51.622;7.046;2022-11-09T07:00:24;3.27;;;2.40;;
5117;SDS011;2578;51.622;7.046;2022-11-09T07:02:51;3.93;;;3.53;;
5117;SDS011;2578;51.622;7.046;2022-11-09T07:05:17;3.23;;;2.20;;
5117;SDS011;2578;51.622;7.046;2022-11-09T07:07:42;3.10;;;2.10;;
5117;SDS011;2578;51.622;7.046;2022-11-09T07:10:08;3.50;;;2.63;;
5117;SDS011;2578;51.622;7.046;2022-11-09T07:12:34;3.10;;;2.00;;
5117;SDS011;2578;51.622;7.046;2022-11-09T07:15:00;3.13;;;2.17;;
5117;SDS011;2578;51.622;7.046;2022-11-09T07:17:30;5.10;;;3.10;;
5117;SDS011;2578;51.622;7.046;2022-11-09T07:19:57;3.10;;;2.20;;
5117;SDS011;2578;51.622;7.046;2022-11-09T07:22:23;3.17;;;2.20;;
5117;SDS011;2578;51.622;7.046;2022-11-09T07:24:51;3.20;;;2.20;;
5117;SDS011;2578;51.622;7.046;2022-11-09T07:27:16;3.17;;;2.30;;
5117;SDS011;2578;51.622;7.046;2022-11-09T07:29:42;3.40;;;2.60;;
5117;SDS011;2578;51.622;7.046;2022-11-09T07:32:07;3.20;;;2.40;;
5117;SDS011;2578;51.622;7.046;2022-11-09T07:34:33;6.00;;;3.30;;
5117;SDS011;2578;51.622;7.046;2022-11-09T07:36:59;3.40;;;2.20;;
5117;SDS011;2578;51.622;7.046;2022-11-09T07:39:24;3.10;;;2.20;;
5117;SDS011;2578;51.622;7.046;2022-11-09T07:41:50;3.70;;;2.87;;
5117;SDS011;2578;51.622;7.046;2022-11-09T07:44:15;3.20;;;2.40;;
5117;SDS011;2578;51.622;7.046;2022-11-09T07:46:46;3.30;;;2.60;;
5117;SDS011;2578;51.622;7.046;2022-11-09T07:49:13;4.33;;;2.70;;
5117;SDS011;2578;51.622;7.046;2022-11-09T07:51:39;3.70;;;2.70;;
5117;SDS011;2578;51.622;7.046;2022-11-09T07:54:05;3.20;;;2.70;;
5117;SDS011;2578;51.622;7.046;2022-11-09T07:56:31;3.33;;;2.70;;
5117;SDS011;2578;51.622;7.046;2022-11-09T07:58:56;3.30;;;2.60;;
5117;SDS011;2578;51.622;7.046;2022-11-09T08:01:22;3.70;;;3.30;;
5117;SDS011;2578;51.622;7.046;2022-11-09T08:03:48;3.77;;;2.80;;
5117;SDS011;2578;51.622;7.046;2022-11-09T08:06:13;3.30;;;2.60;;
5117;SDS011;2578;51.622;7.046;2022-11-09T08:08:39;3.70;;;3.30;;
5117;SDS011;2578;51.622;7.046;2022-11-09T08:11:04;3.77;;;3.40;;
5117;SDS011;2578;51.622;7.046;2022-11-09T08:13:30;3.50;;;3.20;;
5117;SDS011;2578;51.622;7.046;2022-11-09T08:15:56;4.30;;;3.90;;
5117;SDS011;2578;51.622;7.046;2022-11-09T08:18:24;4.63;;;4.23;;
5117;SDS011;2578;51.622;7.046;2022-11-09T08:20:50;4.90;;;4.50;;
5117;SDS011;2578;51.622;7.046;2022-11-09T08:23:16;5.20;;;4.80;;
5117;SDS011;2578;51.622;7.046;2022-11-09T08:25:44;4.87;;;4.47;;
5117;SDS011;2578;51.622;7.046;2022-11-09T08:28:11;4.70;;;4.30;;
5117;SDS011;2578;51.622;7.046;2022-11-09T08:30:36;4.90;;;4.50;;
5117;SDS011;2578;51.622;7.046;2022-11-09T08:33:02;5.37;;;4.97;;
5117;SDS011;2578;51.622;7.046;2022-11-09T08:35:29;5.00;;;4.60;;
5117;SDS011;2578;51.622;7.046;2022-11-09T08:37:55;5.17;;;4.67;;
5117;SDS011;2578;51.622;7.046;2022-11-09T08:40:25;4.93;;;4.53;;
5117;SDS011;2578;51.622;7.046;2022-11-09T08:42:51;5.20;;;4.80;;
5117;SDS011;2578;51.622;7.046;2022-11-09T08:45:17;5.00;;;4.60;;
5117;SDS011;2578;51.622;7.046;2022-11-09T08:47:43;5.50;;;5.10;;
5117;SDS011;2578;51.622;7.046;2022-11-09T08:50:11;5.80;;;5.40;;
5117;SDS011;2578;51.622;7.046;2022-11-09T08:52:37;7.40;;;6.90;;
5117;SDS011;2578;51.622;7.046;2022-11-09T08:55:04;8.10;;;7.60;;
5117;SDS011;2578;51.622;7.046;2022-11-09T08:57:30;8.77;;;8.17;;
5117;SDS011;2578;51.622;7.046;2022-11-09T08:59:56;9.87;;;9.07;;
5117;SDS011;2578;51.622;7.046;2022-11-09T09:02:22;8.97;;;8.37;;
5117;SDS011;2578;51.622;7.046;2022-11-09T09:04:49;9.60;;;9.00;;
5117;SDS011;2578;51.622;7.046;2022-11-09T09:07:15;10.00;;;9.40;;
5117;SDS011;2578;51.622;7.046;2022-11-09T09:09:41;10.30;;;9.70;;
5117;SDS011;2578;51.622;7.046;2022-11-09T09:12:08;9.20;;;8.60;;
5117;SDS011;2578;51.622;7.046;2022-11-09T09:14:34;9.60;;;9.00;;
5117;SDS011;2578;51.622;7.046;2022-11-09T09:17:00;9.90;;;9.30;;
5117;SDS011;2578;51.622;7.046;2022-11-09T09:19:26;11.57;;;10.57;;
5117;SDS011;2578;51.622;7.046;2022-11-09T09:21:52;13.80;;;11.80;;
5117;SDS011;2578;51.622;7.046;2022-11-09T09:24:18;11.87;;;11.13;;
5117;SDS011;2578;51.622;7.046;2022-11-09T09:26:44;12.50;;;11.70;;
5117;SDS011;2578;51.622;7.046;2022-11-09T09:29:10;13.77;;;12.87;;
5117;SDS011;2578;51.622;7.046;2022-11-09T09:31:37;14.50;;;13.60;;
5117;SDS011;2578;51.622;7.046;2022-11-09T09:34:04;15.57;;;14.57;;
5117;SDS011;2578;51.622;7.046;2022-11-09T09:36:30;15.60;;;14.60;;
5117;SDS011;2578;51.622;7.046;2022-11-09T09:38:56;16.30;;;15.20;;
5117;SDS011;2578;51.622;7.046;2022-11-09T09:41:27;14.50;;;13.60;;
5117;SDS011;2578;51.622;7.046;2022-11-09T09:44:01;14.40;;;13.50;;
5117;SDS011;2578;51.622;7.046;2022-11-09T09:47:12;14.83;;;13.83;;
5117;SDS011;2578;51.622;7.046;2022-11-09T09:49:52;13.90;;;13.00;;
5117;SDS011;2578;51.622;7.046;2022-11-09T09:55:11;13.50;;;12.70;;
5117;SDS011;2578;51.622;7.046;2022-11-09T09:57:58;14.60;;;13.40;;
5117;SDS011;2578;51.622;7.046;2022-11-09T10:00:36;12.63;;;11.73;;
5117;SDS011;2578;51.622;7.046;2022-11-09T10:03:03;12.90;;;12.00;;
5117;SDS011;2578;51.622;7.046;2022-11-09T10:08:26;10.80;;;10.10;;
5117;SDS011;2578;51.622;7.046;2022-11-09T10:11:18;10.57;;;9.90;;
5117;SDS011;2578;51.622;7.046;2022-11-09T10:16:52;12.60;;;11.60;;
5117;SDS011;2578;51.622;7.046;2022-11-09T10:19:37;12.27;;;11.47;;
5117;SDS011;2578;51.622;7.046;2022-11-09T10:27:51;15.57;;;14.50;;
5117;SDS011;2578;51.622;7.046;2022-11-09T10:30:18;14.90;;;13.90;;
5117;SDS011;2578;51.622;7.046;2022-11-09T10:32:53;15.90;;;14.80;;
5117;SDS011;2578;51.622;7.046;2022-11-09T10:35:23;16.70;;;15.60;;
5117;SDS011;2578;51.622;7.046;2022-11-09T10:38:00;14.90;;;13.90;;
5117;SDS011;2578;51.622;7.046;2022-11-09T10:40:27;16.63;;;15.53;;
5117;SDS011;2578;51.622;7.046;2022-11-09T10:43:01;15.70;;;14.40;;
5117;SDS011;2578;51.622;7.046;2022-11-09T10:47:58;15.03;;;14.03;;
5117;SDS011;2578;51.622;7.046;2022-11-09T10:50:45;14.23;;;13.33;;
5117;SDS011;2578;51.622;7.046;2022-11-09T10:53:19;13.57;;;12.67;;
5117;SDS011;2578;51.622;7.046;2022-11-09T10:58:23;14.43;;;13.53;;
5117;SDS011;2578;51.622;7.046;2022-11-09T11:03:38;17.30;;;16.10;;
5117;SDS011;2578;51.622;7.046;2022-11-09T11:08:51;17.47;;;16.17;;
5117;SDS011;2578;51.622;7.046;2022-11-09T11:11:37;16.87;;;15.77;;
5117;SDS011;2578;51.622;7.046;2022-11-09T11:16:32;19.10;;;17.80;;
5117;SDS011;2578;51.622;7.046;2022-11-09T11:18:59;18.30;;;17.10;;
5117;SDS011;2578;51.622;7.046;2022-11-09T11:21:26;20.00;;;18.70;;
5117;SDS011;2578;51.622;7.046;2022-11-09T11:26:58;20.30;;;18.90;;
5117;SDS011;2578;51.622;7.046;2022-11-09T11:32:44;21.50;;;19.90;;
5117;SDS011;2578;51.622;7.046;2022-11-09T11:35:14;21.40;;;19.80;;
5117;SDS011;2578;51.622;7.046;2022-11-09T11:40:41;21.10;;;19.40;;
5117;SDS011;2578;51.622;7.046;2022-11-09T11:43:24;21.70;;;20.00;;
5117;SDS011;2578;51.622;7.046;2022-11-09T11:46:33;21.03;;;19.43;;
5117;SDS011;2578;51.622;7.046;2022-11-09T11:57:44;20.63;;;19.13;;
5117;SDS011;2578;51.622;7.046;2022-11-09T12:00:13;20.53;;;19.03;;
5117;SDS011;2578;51.622;7.046;2022-11-09T12:02:53;24.07;;;21.70;;
5117;SDS011;2578;51.622;7.046;2022-11-09T12:05:54;19.60;;;18.10;;
5117;SDS011;2578;51.622;7.046;2022-11-09T12:14:48;18.50;;;17.20;;
5117;SDS011;2578;51.622;7.046;2022-11-09T12:20:02;18.60;;;17.30;;
5117;SDS011;2578;51.622;7.046;2022-11-09T12:37:25;18.93;;;17.53;;
5117;SDS011;2578;51.622;7.046;2022-11-09T12:40:05;17.80;;;16.60;;
5117;SDS011;2578;51.622;7.046;2022-11-09T12:42:41;18.90;;;17.60;;
5117;SDS011;2578;51.622;7.046;2022-11-09T12:47:58;18.63;;;17.23;;
5117;SDS011;2578;51.622;7.046;2022-11-09T12:50:38;17.40;;;16.20;;
5117;SDS011;2578;51.622;7.046;2022-11-09T12:53:05;17.73;;;16.53;;
5117;SDS011;2578;51.622;7.046;2022-11-09T12:55:38;16.70;;;15.60;;
5117;SDS011;2578;51.622;7.046;2022-11-09T12:58:26;16.43;;;15.33;;
5117;SDS011;2578;51.622;7.046;2022-11-09T13:00:58;17.10;;;16.00;;
5117;SDS011;2578;51.622;7.046;2022-11-09T13:03:30;16.77;;;15.67;;
5117;SDS011;2578;51.622;7.046;2022-11-09T13:06:14;16.80;;;15.70;;
5117;SDS011;2578;51.622;7.046;2022-11-09T13:09:04;16.40;;;15.30;;
5117;SDS011;2578;51.622;7.046;2022-11-09T13:11:46;15.90;;;14.90;;
5117;SDS011;2578;51.622;7.046;2022-11-09T13:16:46;16.40;;;15.30;;
5117;SDS011;2578;51.622;7.046;2022-11-09T13:22:56;19.17;;;17.50;;
5117;SDS011;2578;51.622;7.046;2022-11-09T13:25:03;18.27;;;16.97;;
5117;SDS011;2578;51.622;7.046;2022-11-09T13:27:50;19.20;;;17.27;;
5117;SDS011;2578;51.622;7.046;2022-11-09T13:38:13;19.90;;;18.60;;
5117;SDS011;2578;51.622;7.046;2022-11-09T13:40:49;20.43;;;19.03;;
5117;SDS011;2578;51.622;7.046;2022-11-09T13:45:55;20.73;;;19.23;;
5117;SDS011;2578;51.622;7.046;2022-11-09T13:51:02;19.80;;;18.40;;
5117;SDS011;2578;51.622;7.046;2022-11-09T13:59:11;17.70;;;16.50;;
5117;SDS011;2578;51.622;7.046;2022-11-09T14:01:45;17.00;;;15.80;;
5117;SDS011;2578;51.622;7.046;2022-11-09T14:06:49;16.40;;;15.30;;
5117;SDS011;2578;51.622;7.046;2022-11-09T14:09:25;16.37;;;15.20;;
5117;SDS011;2578;51.622;7.046;2022-11-09T14:14:27;15.80;;;14.80;;
5117;SDS011;2578;51.622;7.046;2022-11-09T14:17:14;16.07;;;15.07;;
5117;SDS011;2578;51.622;7.046;2022-11-09T14:20:06;16.10;;;15.10;;
5117;SDS011;2578;51.622;7.046;2022-11-09T14:22:48;15.70;;;14.70;;
5117;SDS011;2578;51.622;7.046;2022-11-09T14:25:16;16.17;;;15.07;;
5117;SDS011;2578;51.622;7.046;2022-11-09T14:27:47;16.30;;;15.30;;
5117;SDS011;2578;51.622;7.046;2022-11-09T14:30:21;15.83;;;14.83;;
5117;SDS011;2578;51.622;7.046;2022-11-09T14:32:49;16.70;;;15.50;;
5117;SDS011;2578;51.622;7.046;2022-11-09T14:37:43;14.10;;;13.10;;
5117;SDS011;2578;51.622;7.046;2022-11-09T14:40:26;10.50;;;9.90;;
5117;SDS011;2578;51.622;7.046;2022-11-09T14:45:25;11.00;;;9.80;;
5117;SDS011;2578;51.622;7.046;2022-11-09T14:47:53;8.90;;;8.30;;
5117;SDS011;2578;51.622;7.046;2022-11-09T14:50:24;10.50;;;9.80;;
5117;SDS011;2578;51.622;7.046;2022-11-09T14:52:53;12.90;;;10.97;;
5117;SDS011;2578;51.622;7.046;2022-11-09T14:55:20;10.10;;;9.50;;
5117;SDS011;2578;51.622;7.046;2022-11-09T14:57:48;10.73;;;10.03;;
5117;SDS011;2578;51.622;7.046;2022-11-09T15:00:24;10.47;;;9.87;;
5117;SDS011;2578;51.622;7.046;2022-11-09T15:02:55;10.90;;;10.20;;
5117;SDS011;2578;51.622;7.046;2022-11-09T15:05:29;11.10;;;10.10;;
5117;SDS011;2578;51.622;7.046;2022-11-09T15:07:57;11.20;;;10.50;;
5117;SDS011;2578;51.622;7.046;2022-11-09T15:10:24;12.37;;;10.83;;
5117;SDS011;2578;51.622;7.046;2022-11-09T15:12:55;10.23;;;9.63;;
5117;SDS011;2578;51.622;7.046;2022-11-09T15:15:24;11.07;;;10.37;;
5117;SDS011;2578;51.622;7.046;2022-11-09T15:17:51;11.03;;;10.33;;
5117;SDS011;2578;51.622;7.046;2022-11-09T15:22:47;11.23;;;10.53;;
5117;SDS011;2578;51.622;7.046;2022-11-09T15:25:17;11.60;;;10.90;;
5117;SDS011;2578;51.622;7.046;2022-11-09T15:33:00;11.57;;;10.87;;
5117;SDS011;2578;51.622;7.046;2022-11-09T15:35:35;12.00;;;11.20;;
5117;SDS011;2578;51.622;7.046;2022-11-09T15:38:00;11.60;;;10.80;;
5117;SDS011;2578;51.622;7.046;2022-11-09T15:40:26;11.10;;;10.40;;
5117;SDS011;2578;51.622;7.046;2022-11-09T15:42:52;10.93;;;10.23;;
5117;SDS011;2578;51.622;7.046;2022-11-09T15:45:18;10.37;;;9.77;;
5117;SDS011;2578;51.622;7.046;2022-11-09T15:47:54;10.10;;;9.50;;
5117;SDS011;2578;51.622;7.046;2022-11-09T15:50:24;9.97;;;9.37;;
5117;SDS011;2578;51.622;7.046;2022-11-09T15:52:51;10.00;;;9.40;;
5117;SDS011;2578;51.622;7.046;2022-11-09T15:55:20;9.40;;;8.80;;
5117;SDS011;2578;51.622;7.046;2022-11-09T15:57:47;9.33;;;8.73;;
5117;SDS011;2578;51.622;7.046;2022-11-09T16:00:14;9.00;;;8.40;;
5117;SDS011;2578;51.622;7.046;2022-11-09T16:02:41;9.17;;;8.47;;
5117;SDS011;2578;51.622;7.046;2022-11-09T16:05:07;10.10;;;9.20;;
5117;SDS011;2578;51.622;7.046;2022-11-09T16:07:33;9.40;;;8.77;;
5117;SDS011;2578;51.622;7.046;2022-11-09T16:09:58;12.03;;;8.97;;
5117;SDS011;2578;51.622;7.046;2022-11-09T16:12:24;10.20;;;9.40;;
5117;SDS011;2578;51.622;7.046;2022-11-09T16:14:50;9.40;;;8.80;;
5117;SDS011;2578;51.622;7.046;2022-11-09T16:17:16;8.90;;;8.30;;
5117;SDS011;2578;51.622;7.046;2022-11-09T16:19:41;9.20;;;8.60;;
5117;SDS011;2578;51.622;7.046;2022-11-09T16:22:07;8.43;;;7.93;;
5117;SDS011;2578;51.622;7.046;2022-11-09T16:24:33;8.63;;;8.07;;
5117;SDS011;2578;51.622;7.046;2022-11-09T16:26:59;9.47;;;8.33;;
5117;SDS011;2578;51.622;7.046;2022-11-09T16:29:26;8.90;;;8.30;;
5117;SDS011;2578;51.622;7.046;2022-11-09T16:31:53;9.10;;;8.50;;
5117;SDS011;2578;51.622;7.046;2022-11-09T16:34:19;8.67;;;8.10;;
5117;SDS011;2578;51.622;7.046;2022-11-09T16:36:45;9.07;;;8.47;;
5117;SDS011;2578;51.622;7.046;2022-11-09T16:39:11;8.90;;;8.30;;
5117;SDS011;2578;51.622;7.046;2022-11-09T16:41:40;9.00;;;8.40;;
5117;SDS011;2578;51.622;7.046;2022-11-09T16:44:08;8.47;;;7.97;;
5117;SDS011;2578;51.622;7.046;2022-11-09T16:46:34;9.73;;;8.93;;
5117;SDS011;2578;51.622;7.046;2022-11-09T16:48:59;8.10;;;7.60;;
5117;SDS011;2578;51.622;7.046;2022-11-09T16:51:26;8.17;;;7.67;;
5117;SDS011;2578;51.622;7.046;2022-11-09T16:53:52;8.17;;;7.63;;
5117;SDS011;2578;51.622;7.046;2022-11-09T16:56:18;8.10;;;7.50;;
5117;SDS011;2578;51.622;7.046;2022-11-09T16:58:43;6.90;;;6.40;;
5117;SDS011;2578;51.622;7.046;2022-11-09T17:01:09;7.60;;;7.10;;
5117;SDS011;2578;51.622;7.046;2022-11-09T17:03:35;13.10;;;8.33;;
5117;SDS011;2578;51.622;7.046;2022-11-09T17:06:01;6.17;;;5.77;;
5117;SDS011;2578;51.622;7.046;2022-11-09T17:08:27;7.10;;;6.60;;
5117;SDS011;2578;51.622;7.046;2022-11-09T17:10:53;6.40;;;6.00;;
5117;SDS011;2578;51.622;7.046;2022-11-09T17:13:19;6.20;;;5.80;;
5117;SDS011;2578;51.622;7.046;2022-11-09T17:15:46;5.90;;;5.50;;